Time;durP1;ratioP1;P1;durP2;ratioP2;P2;SDS_P1;SDS_P2;PMS_P1;PMS_P2;Temp;Humidity;BMP_temperature;BMP_pressure;BME280_temperature;BME280_humidity;BME280_pressure;Samples;Min_cycle;Max_cycle;Signal;HPM_P1;HPM_P2
2023/06/24 00:02:10;;;;;;;4.22;3.72;;;22.40;84.70;;;;;;10460956;28;20499;-69
2023/06/24 00:07:10;;;;;;;3.80;3.25;;;22.40;84.70;;;;;;10452477;28;20027;-69
2023/06/24 00:12:19;;;;;;;4.88;3.38;;;22.30;84.70;;;;;;10457961;28;20025;-69
2023/06/24 00:17:19;;;;;;;5.45;3.60;;;22.30;84.60;;;;;;10454202;28;20021;-69
2023/06/24 00:22:22;;;;;;;6.80;3.90;;;22.30;84.60;;;;;;10446438;28;20440;-69
2023/06/24 00:27:22;;;;;;;5.50;3.60;;;22.30;84.60;;;;;;10443510;28;20029;-69
2023/06/24 00:32:23;;;;;;;6.32;3.70;;;22.20;84.40;;;;;;10440145;28;20021;-69
2023/06/24 00:37:23;;;;;;;4.63;3.65;;;22.20;84.50;;;;;;10456502;28;20020;-69
2023/06/24 00:42:25;;;;;;;6.13;3.40;;;22.20;84.50;;;;;;10451362;28;20093;-69
2023/06/24 00:47:26;;;;;;;5.63;3.88;;;22.20;84.50;;;;;;10456991;28;20332;-69
2023/06/24 00:52:26;;;;;;;5.07;3.90;;;22.10;84.50;;;;;;10454423;28;20025;-69
2023/06/24 00:57:28;;;;;;;5.50;4.00;;;22.10;84.50;;;;;;10448511;28;20588;-69
2023/06/24 01:02:32;;;;;;;5.63;4.28;;;22.10;84.40;;;;;;10456135;28;20013;-69
2023/06/24 01:07:35;;;;;;;4.70;3.65;;;22.00;84.40;;;;;;10454823;28;20044;-69
2023/06/24 01:12:38;;;;;;;6.60;4.25;;;22.00;84.40;;;;;;10459181;28;20140;-69
2023/06/24 01:17:48;;;;;;;6.53;4.60;;;22.00;84.40;;;;;;10446717;28;20619;-69
2023/06/24 01:23:20;;;;;;;6.25;4.55;;;21.90;84.30;;;;;;10452424;28;20044;-69
2023/06/24 01:28:21;;;;;;;6.28;3.85;;;21.90;84.20;;;;;;10437817;28;20130;-69
2023/06/24 01:33:36;;;;;;;5.90;4.20;;;21.90;84.30;;;;;;10452147;28;20033;-69
2023/06/24 01:39:00;;;;;;;6.60;4.38;;;21.80;84.30;;;;;;10445585;28;20075;-69
2023/06/24 01:44:01;;;;;;;5.53;3.80;;;21.80;84.30;;;;;;10459716;28;20108;-69
2023/06/24 01:49:05;;;;;;;4.63;3.70;;;21.80;84.40;;;;;;10450101;28;20385;-69
2023/06/24 01:54:10;;;;;;;8.38;4.78;;;21.80;84.40;;;;;;10439072;28;20052;-67
2023/06/24 01:59:12;;;;;;;7.45;4.43;;;21.70;84.40;;;;;;10450903;28;20010;-67
2023/06/24 02:04:14;;;;;;;5.72;3.97;;;21.70;84.50;;;;;;10453084;28;20017;-67
2023/06/24 02:09:17;;;;;;;5.15;4.15;;;21.60;84.40;;;;;;10451130;28;20025;-67
2023/06/24 02:14:20;;;;;;;6.50;4.75;;;21.60;84.40;;;;;;10463124;28;20325;-67
2023/06/24 02:19:20;;;;;;;5.25;4.57;;;21.60;84.50;;;;;;10449015;28;20295;-67
2023/06/24 02:24:21;;;;;;;6.25;4.22;;;21.60;84.50;;;;;;10437671;28;20125;-67
2023/06/24 02:29:24;;;;;;;7.95;4.82;;;21.60;84.50;;;;;;10452586;28;20399;-68
2023/06/24 02:34:25;;;;;;;6.35;4.30;;;21.50;85.10;;;;;;10456447;28;20400;-67
2023/06/24 02:39:25;;;;;;;4.95;4.22;;;21.50;84.50;;;;;;10456152;28;20031;-67
2023/06/24 02:44:26;;;;;;;4.72;4.03;;;21.50;84.60;;;;;;10442899;28;20041;-67
2023/06/24 02:49:27;;;;;;;6.90;4.68;;;21.40;84.50;;;;;;10451983;28;20025;-67
2023/06/24 02:54:29;;;;;;;5.53;4.30;;;21.40;84.50;;;;;;10450441;28;20420;-67
2023/06/24 02:59:29;;;;;;;8.13;5.43;;;21.40;84.60;;;;;;10448135;28;20017;-67
2023/06/24 03:04:30;;;;;;;5.65;4.10;;;21.30;84.50;;;;;;10451308;28;20523;-67
2023/06/24 03:09:34;;;;;;;5.10;3.92;;;21.30;84.50;;;;;;10446427;28;20443;-67
2023/06/24 03:14:35;;;;;;;5.10;4.25;;;21.30;84.50;;;;;;10446772;28;20104;-68
2023/06/24 03:19:35;;;;;;;7.32;4.90;;;21.30;84.50;;;;;;10451855;28;20284;-67
2023/06/24 03:24:36;;;;;;;6.13;4.43;;;21.20;84.50;;;;;;10439046;28;20037;-67
2023/06/24 03:29:37;;;;;;;6.95;4.57;;;21.20;84.50;;;;;;10450942;28;20021;-67
2023/06/24 03:34:37;;;;;;;6.35;4.15;;;21.20;84.50;;;;;;10429165;28;20037;-67
2023/06/24 03:39:38;;;;;;;5.90;4.30;;;21.10;84.40;;;;;;10442531;28;20029;-67
2023/06/24 03:44:38;;;;;;;5.13;4.18;;;21.20;84.50;;;;;;10447673;28;20013;-67
2023/06/24 03:49:39;;;;;;;6.63;4.43;;;21.10;84.50;;;;;;10445224;28;20029;-67
2023/06/24 03:54:40;;;;;;;6.18;4.40;;;21.20;84.50;;;;;;10446529;28;20025;-68
2023/06/24 03:59:40;;;;;;;7.20;4.45;;;21.10;84.50;;;;;;10438633;28;20017;-67
2023/06/24 04:04:41;;;;;;;7.50;4.60;;;21.10;84.50;;;;;;10447448;28;20021;-68
2023/06/24 04:09:42;;;;;;;7.47;5.47;;;21.10;84.50;;;;;;10456029;28;20938;-68
2023/06/24 04:14:43;;;;;;;7.47;4.55;;;21.00;84.50;;;;;;10451451;28;20033;-68
2023/06/24 04:19:44;;;;;;;6.53;4.50;;;21.00;84.40;;;;;;10451647;28;20029;-67
2023/06/24 04:24:45;;;;;;;7.07;4.60;;;21.00;84.40;;;;;;10442634;28;20209;-68
2023/06/24 04:29:45;;;;;;;6.43;4.50;;;21.00;84.40;;;;;;10453838;28;20424;-68
2023/06/24 04:34:46;;;;;;;6.05;4.43;;;21.00;84.50;;;;;;10446864;28;20029;-68
2023/06/24 04:39:47;;;;;;;5.65;4.18;;;21.00;84.50;;;;;;10446056;28;20509;-67
2023/06/24 04:44:51;;;;;;;6.65;4.38;;;20.90;84.40;;;;;;10455033;28;20029;-68
2023/06/24 04:49:51;;;;;;;8.90;5.13;;;20.90;84.40;;;;;;10448327;28;20023;-68
2023/06/24 04:54:52;;;;;;;6.80;4.38;;;20.90;84.40;;;;;;10456804;28;20035;-68
2023/06/24 04:59:52;;;;;;;7.00;4.70;;;21.00;84.40;;;;;;10445385;28;20036;-67
2023/06/24 05:04:53;;;;;;;5.25;4.10;;;20.90;84.40;;;;;;10453585;28;20071;-68
2023/06/24 05:09:54;;;;;;;6.18;4.45;;;20.90;84.40;;;;;;10446424;28;20017;-68
2023/06/24 05:14:54;;;;;;;6.32;4.03;;;20.90;84.90;;;;;;10441594;28;20537;-67
2023/06/24 05:19:55;;;;;;;5.97;4.13;;;20.90;84.30;;;;;;10447026;28;20017;-68
2023/06/24 05:24:55;;;;;;;6.60;4.53;;;20.90;84.30;;;;;;10447303;28;20033;-67
2023/06/24 05:29:56;;;;;;;6.32;4.43;;;20.90;84.40;;;;;;10443440;28;20531;-68
2023/06/24 05:34:57;;;;;;;6.65;4.47;;;20.90;84.40;;;;;;10452200;28;20029;-68
2023/06/24 05:40:01;;;;;;;6.75;4.13;;;20.90;84.40;;;;;;10453308;28;20021;-68
2023/06/24 05:45:01;;;;;;;6.63;4.80;;;20.90;84.50;;;;;;10438657;28;20029;-68
2023/06/24 05:50:02;;;;;;;7.10;4.40;;;20.90;84.60;;;;;;10446722;28;20032;-68
2023/06/24 05:55:03;;;;;;;6.00;4.13;;;20.90;84.60;;;;;;10439782;28;20024;-67
2023/06/24 06:00:04;;;;;;;7.70;4.88;;;20.90;84.60;;;;;;10454280;28;20028;-68
2023/06/24 06:05:05;;;;;;;6.85;4.80;;;20.90;84.70;;;;;;10431285;28;20053;-68
2023/06/24 06:10:06;;;;;;;5.75;4.32;;;20.90;84.70;;;;;;10443450;28;20037;-68
2023/06/24 06:15:08;;;;;;;6.22;4.28;;;20.90;84.70;;;;;;10431736;28;20035;-70
2023/06/24 06:20:09;;;;;;;6.70;4.80;;;20.90;84.60;;;;;;10448700;28;20054;-71
2023/06/24 06:25:09;;;;;;;5.05;4.00;;;20.90;84.70;;;;;;10425803;28;20024;-68
2023/06/24 06:30:11;;;;;;;5.38;3.83;;;20.90;84.80;;;;;;10441651;28;20028;-71
2023/06/24 06:35:11;;;;;;;5.18;3.83;;;21.00;84.70;;;;;;10443783;28;20021;-69
2023/06/24 06:40:12;;;;;;;5.63;4.10;;;21.00;84.70;;;;;;10434728;28;20075;-70
2023/06/24 06:45:13;;;;;;;5.75;4.30;;;21.00;84.70;;;;;;10455547;28;20395;-69
2023/06/24 06:50:14;;;;;;;7.18;4.10;;;21.10;84.60;;;;;;10438994;28;20168;-70
2023/06/24 06:55:14;;;;;;;5.93;3.72;;;21.10;84.50;;;;;;10445344;28;20012;-68
2023/06/24 07:00:15;;;;;;;5.57;4.20;;;21.10;84.40;;;;;;10436564;28;20029;-69
2023/06/24 07:05:16;;;;;;;6.50;4.07;;;21.20;84.50;;;;;;10441733;28;20025;-69
2023/06/24 07:10:19;;;;;;;5.00;3.92;;;21.20;84.50;;;;;;10426585;28;20025;-70
2023/06/24 07:15:20;;;;;;;6.43;4.28;;;21.20;84.50;;;;;;10440955;28;20071;-70
2023/06/24 07:20:22;;;;;;;5.75;4.00;;;21.20;84.40;;;;;;10450163;28;20025;-74
2023/06/24 07:25:22;;;;;;;7.88;4.75;;;21.30;84.40;;;;;;10438229;28;20036;-71
2023/06/24 07:30:23;;;;;;;6.68;4.10;;;21.40;84.40;;;;;;10442698;28;20548;-71
2023/06/24 07:35:24;;;;;;;7.00;3.88;;;21.60;84.10;;;;;;10438884;28;20025;-71
2023/06/24 07:40:24;;;;;;;7.20;4.10;;;21.60;83.80;;;;;;10444820;28;20115;-73
2023/06/24 07:45:25;;;;;;;7.38;4.13;;;21.70;83.80;;;;;;10457531;28;20584;-72
2023/06/24 07:50:26;;;;;;;8.15;4.38;;;21.70;83.70;;;;;;10453068;28;20086;-72
2023/06/24 07:55:26;;;;;;;8.60;4.10;;;21.70;83.60;;;;;;10451274;28;20028;-73
2023/06/24 08:00:27;;;;;;;10.27;4.82;;;21.70;83.80;;;;;;10456010;28;20559;-71
2023/06/24 08:05:27;;;;;;;8.70;4.40;;;21.80;83.70;;;;;;10442154;28;20032;-73
2023/06/24 08:10:28;;;;;;;6.00;3.92;;;21.90;83.60;;;;;;10440767;28;20082;-72
2023/06/24 08:15:29;;;;;;;6.10;3.35;;;21.90;83.50;;;;;;10443711;28;20091;-73
2023/06/24 08:20:29;;;;;;;6.53;3.70;;;21.90;83.20;;;;;;10439167;28;20025;-73
2023/06/24 08:25:30;;;;;;;4.90;3.10;;;22.00;82.80;;;;;;10437660;28;20060;-73
2023/06/24 08:30:32;;;;;;;5.97;3.15;;;21.90;82.60;;;;;;10448474;28;20064;-74
2023/06/24 08:35:33;;;;;;;6.88;3.60;;;21.90;82.30;;;;;;10450815;28;20477;-73
2023/06/24 08:40:34;;;;;;;5.28;3.22;;;21.90;82.40;;;;;;10445539;28;20017;-73
2023/06/24 08:45:34;;;;;;;5.57;3.03;;;21.90;81.50;;;;;;10460204;28;20513;-75
2023/06/24 08:50:40;;;;;;;5.80;2.67;;;21.90;81.10;;;;;;10459121;28;20541;-74
2023/06/24 08:55:43;;;;;;;4.43;3.00;;;22.00;81.00;;;;;;10442704;28;20056;-75
2023/06/24 09:00:44;;;;;;;5.20;3.42;;;22.10;81.00;;;;;;10450068;28;20530;-75
2023/06/24 09:05:44;;;;;;;4.45;2.97;;;22.10;80.90;;;;;;10445070;28;20025;-72
2023/06/24 09:10:52;;;;;;;4.43;2.70;;;22.20;80.90;;;;;;10449891;28;20444;-74
2023/06/24 09:15:52;;;;;;;5.80;2.90;;;22.30;80.70;;;;;;10443853;28;20104;-73
2023/06/24 09:20:54;;;;;;;4.35;2.70;;;22.40;80.10;;;;;;10447830;28;20430;-73
2023/06/24 09:25:58;;;;;;;3.88;2.65;;;22.60;80.10;;;;;;10445277;28;20048;-73
2023/06/24 09:31:09;;;;;;;4.65;2.92;;;22.80;79.60;;;;;;10436138;28;20123;-71
2023/06/24 09:36:14;;;;;;;6.72;3.30;;;22.90;79.50;;;;;;10447772;28;20530;-72
2023/06/24 09:41:15;;;;;;;6.22;3.60;;;23.00;79.50;;;;;;10447682;28;20017;-73
2023/06/24 09:46:16;;;;;;;7.38;3.75;;;23.00;79.70;;;;;;10451205;28;20036;-72
2023/06/24 09:51:17;;;;;;;5.65;3.15;;;23.10;79.80;;;;;;10440902;28;20028;-72
2023/06/24 09:56:18;;;;;;;5.85;3.35;;;23.20;79.90;;;;;;10444454;28;20408;-74
2023/06/24 10:01:20;;;;;;;8.18;3.88;;;23.30;79.50;;;;;;10449050;28;20017;-75
2023/06/24 10:06:21;;;;;;;6.90;4.15;;;23.50;79.70;;;;;;10446730;28;20013;-74
2023/06/24 10:11:21;;;;;;;6.18;3.80;;;23.70;79.50;;;;;;10443226;28;20496;-75
2023/06/24 10:16:22;;;;;;;6.07;4.13;;;23.90;79.10;;;;;;10451394;28;20024;-74
2023/06/24 10:21:44;;;;;;;7.00;3.65;;;23.90;79.20;;;;;;10451809;28;20388;-74
2023/06/24 10:26:49;;;;;;;9.95;4.72;;;23.90;80.00;;;;;;10439797;28;20492;-74
2023/06/24 10:31:53;;;;;;;9.23;3.58;;;24.00;79.40;;;;;;10436449;28;20035;-74
2023/06/24 10:37:04;;;;;;;6.95;4.07;;;24.00;79.50;;;;;;10442165;28;20504;-77
2023/06/24 10:42:23;;;;;;;7.90;4.43;;;24.20;79.40;;;;;;10449953;28;20404;-74
2023/06/24 10:47:26;;;;;;;7.72;4.85;;;24.40;79.50;;;;;;10434320;28;20393;-75
2023/06/24 10:52:27;;;;;;;5.93;3.78;;;24.40;79.50;;;;;;10451771;28;20016;-73
2023/06/24 10:57:28;;;;;;;6.88;3.50;;;24.50;79.40;;;;;;10445289;28;20388;-73
2023/06/24 11:02:29;;;;;;;5.35;3.53;;;24.50;78.60;;;;;;10461694;28;20017;-72
2023/06/24 11:07:36;;;;;;;9.15;4.28;;;24.70;78.30;;;;;;10443536;28;20032;-73
2023/06/24 11:12:39;;;;;;;6.55;4.22;;;24.90;77.70;;;;;;10444111;28;20151;-73
2023/06/24 11:17:40;;;;;;;5.15;3.50;;;25.00;77.50;;;;;;10447007;28;20081;-72
2023/06/24 11:22:42;;;;;;;7.20;3.90;;;25.00;77.10;;;;;;10449196;28;20029;-74
2023/06/24 11:27:43;;;;;;;5.18;3.53;;;25.20;76.90;;;;;;10448066;28;20021;-73
2023/06/24 11:32:44;;;;;;;5.00;3.40;;;25.30;77.00;;;;;;10455888;28;20021;-76
2023/06/24 11:37:47;;;;;;;6.05;3.45;;;25.40;77.00;;;;;;10456567;28;20192;-74
2023/06/24 11:42:50;;;;;;;6.63;4.47;;;25.50;76.80;;;;;;10447601;28;20172;-72
2023/06/24 11:47:52;;;;;;;6.00;3.40;;;25.60;76.20;;;;;;10451481;28;20572;-73
2023/06/24 11:52:54;;;;;;;7.40;3.47;;;25.60;76.00;;;;;;10460443;28;20465;-71
2023/06/24 11:58:00;;;;;;;5.22;3.42;;;25.80;75.10;;;;;;10449139;28;20641;-73
2023/06/24 12:03:05;;;;;;;4.88;3.63;;;25.90;75.30;;;;;;10456585;28;20372;-73
2023/06/24 12:08:08;;;;;;;5.53;3.50;;;25.80;75.60;;;;;;10449297;28;20388;-73
2023/06/24 12:13:09;;;;;;;5.88;3.33;;;25.80;75.60;;;;;;10443648;28;20017;-74
2023/06/24 12:18:10;;;;;;;6.65;3.70;;;25.90;75.40;;;;;;10449145;28;20263;-73
2023/06/24 12:23:11;;;;;;;4.93;3.47;;;25.80;75.70;;;;;;10454432;28;20522;-73
2023/06/24 12:28:12;;;;;;;6.50;3.92;;;25.60;76.10;;;;;;10448994;28;20027;-73
2023/06/24 12:33:12;;;;;;;6.28;3.20;;;25.50;76.40;;;;;;10446914;28;20028;-73
2023/06/24 12:38:13;;;;;;;5.13;3.45;;;25.40;76.90;;;;;;10439919;28;20410;-74
2023/06/24 12:43:14;;;;;;;4.80;3.35;;;25.30;77.40;;;;;;10451533;28;20103;-73
2023/06/24 12:48:15;;;;;;;8.82;3.90;;;25.30;77.70;;;;;;10445962;28;20020;-74
2023/06/24 12:53:15;;;;;;;9.45;3.67;;;25.60;77.20;;;;;;10458652;28;20567;-73
2023/06/24 12:58:22;;;;;;;5.75;3.17;;;25.80;76.10;;;;;;10449339;28;20025;-73
2023/06/24 13:03:23;;;;;;;4.33;3.17;;;26.10;75.40;;;;;;10454787;28;20502;-72
2023/06/24 13:08:23;;;;;;;6.00;3.38;;;26.40;75.20;;;;;;10455973;28;20028;-73
2023/06/24 13:13:24;;;;;;;4.95;3.00;;;26.70;74.10;;;;;;10445210;28;20388;-75
2023/06/24 13:18:24;;;;;;;4.60;3.00;;;26.80;73.20;;;;;;10449714;28;20025;-76
2023/06/24 13:23:25;;;;;;;4.82;2.88;;;26.80;72.70;;;;;;10434292;28;20029;-74
2023/06/24 13:28:26;;;;;;;6.05;3.38;;;27.00;72.30;;;;;;10434737;28;20489;-73
2023/06/24 13:33:27;;;;;;;6.22;3.40;;;27.20;72.40;;;;;;10440920;28;20029;-75
2023/06/24 13:38:27;;;;;;;5.47;2.95;;;27.30;71.80;;;;;;10442790;28;20401;-74
2023/06/24 13:43:28;;;;;;;4.85;2.40;;;27.50;71.70;;;;;;10443359;28;20022;-73
2023/06/24 13:48:28;;;;;;;4.07;2.80;;;27.60;71.50;;;;;;10440977;28;20297;-73
2023/06/24 13:53:29;;;;;;;4.72;2.88;;;27.60;71.10;;;;;;10422116;28;20040;-75
2023/06/24 13:58:30;;;;;;;3.83;2.78;;;27.80;71.10;;;;;;10432936;28;20074;-75
2023/06/24 14:03:30;;;;;;;6.30;3.30;;;27.90;70.40;;;;;;10438273;28;20008;-73
2023/06/24 14:08:34;;;;;;;4.15;3.10;;;28.10;70.40;;;;;;10439844;28;20024;-73
2023/06/24 14:13:36;;;;;;;4.70;2.83;;;28.20;70.00;;;;;;10446548;28;20044;-72
2023/06/24 14:18:38;;;;;;;9.10;3.03;;;28.40;69.60;;;;;;10446409;28;20512;-73
2023/06/24 14:23:40;;;;;;;7.10;2.90;;;28.40;69.70;;;;;;10442985;28;20025;-73
2023/06/24 14:28:40;;;;;;;3.92;2.70;;;28.50;69.10;;;;;;10442407;28;20481;-74
2023/06/24 14:33:41;;;;;;;7.03;3.00;;;28.40;68.00;;;;;;10447551;28;20028;-72
2023/06/24 14:38:42;;;;;;;4.72;2.65;;;28.40;68.10;;;;;;10451862;28;20239;-72
2023/06/24 14:43:43;;;;;;;5.28;2.90;;;28.30;68.20;;;;;;10443243;28;20032;-73
2023/06/24 14:48:44;;;;;;;8.13;3.08;;;28.50;68.10;;;;;;10442620;28;20029;-72
2023/06/24 14:53:44;;;;;;;4.47;3.03;;;28.50;67.60;;;;;;10440314;28;20111;-72
2023/06/24 14:58:45;;;;;;;5.55;2.92;;;28.40;67.70;;;;;;10443263;28;20737;-74
2023/06/24 15:03:45;;;;;;;5.15;3.38;;;28.60;68.20;;;;;;10435829;28;20029;-73
2023/06/24 15:08:46;;;;;;;4.25;3.00;;;28.50;68.00;;;;;;10441537;28;20033;-72
2023/06/24 15:13:47;;;;;;;4.60;3.10;;;28.30;68.80;;;;;;10437912;28;20258;-72
2023/06/24 15:18:49;;;;;;;6.28;3.92;;;28.10;68.90;;;;;;10436266;28;20104;-75
2023/06/24 15:23:50;;;;;;;6.07;3.78;;;28.10;68.60;;;;;;10443772;28;20045;-73
2023/06/24 15:28:51;;;;;;;10.80;4.53;;;28.00;69.10;;;;;;10440205;28;20044;-71
2023/06/24 15:33:51;;;;;;;6.28;3.85;;;27.80;70.40;;;;;;10447186;28;20029;-71
2023/06/24 15:38:53;;;;;;;6.38;4.38;;;28.00;71.10;;;;;;10446347;28;20021;-75
2023/06/24 15:43:53;;;;;;;10.90;4.85;;;27.90;71.30;;;;;;10438744;28;20112;-72
2023/06/24 15:48:54;;;;;;;7.05;4.35;;;27.80;72.00;;;;;;10448774;28;20434;-74
2023/06/24 15:53:55;;;;;;;6.25;4.35;;;27.70;72.20;;;;;;10442741;28;20078;-70
2023/06/24 15:58:55;;;;;;;10.07;4.53;;;27.50;72.70;;;;;;10433918;28;20454;-72
2023/06/24 16:03:56;;;;;;;6.55;4.38;;;27.50;73.30;;;;;;10452393;28;20029;-77
2023/06/24 16:08:57;;;;;;;9.13;5.10;;;27.40;73.40;;;;;;10454139;28;20078;-73
2023/06/24 16:13:58;;;;;;;5.60;3.95;;;27.20;73.70;;;;;;10445109;28;20036;-73
2023/06/24 16:18:59;;;;;;;7.72;3.90;;;27.10;74.10;;;;;;10447503;28;20093;-73
2023/06/24 16:23:59;;;;;;;8.98;4.43;;;27.10;74.00;;;;;;10452969;28;20560;-73
2023/06/24 16:29:00;;;;;;;5.68;4.25;;;27.00;74.10;;;;;;10450019;28;20024;-73
2023/06/24 16:34:01;;;;;;;6.55;4.22;;;26.90;74.20;;;;;;10442123;28;20032;-72
2023/06/24 16:39:02;;;;;;;6.72;4.35;;;26.80;74.80;;;;;;10446336;28;20367;-72
2023/06/24 16:44:02;;;;;;;7.55;4.93;;;26.80;75.00;;;;;;10455784;28;20035;-74
2023/06/24 16:49:06;;;;;;;7.97;4.05;;;26.80;74.50;;;;;;10450986;28;20489;-75
2023/06/24 16:54:07;;;;;;;6.65;4.32;;;26.70;75.00;;;;;;10449176;28;20025;-74
2023/06/24 16:59:08;;;;;;;8.18;3.65;;;26.60;75.60;;;;;;10443363;28;20035;-75
2023/06/24 17:04:08;;;;;;;7.78;4.43;;;26.60;75.50;;;;;;10448978;28;20090;-74
2023/06/24 17:09:09;;;;;;;8.90;4.28;;;26.60;75.60;;;;;;10450066;28;20020;-74
2023/06/24 17:14:10;;;;;;;8.95;4.95;;;26.50;75.80;;;;;;10445604;28;20499;-74
2023/06/24 17:19:10;;;;;;;10.10;5.25;;;26.40;75.70;;;;;;10454288;28;20053;-74
2023/06/24 17:24:11;;;;;;;10.55;4.80;;;26.40;75.70;;;;;;10449665;28;20615;-74
2023/06/24 17:29:13;;;;;;;8.32;4.63;;;26.40;75.80;;;;;;10452827;28;20107;-74
2023/06/24 17:34:14;;;;;;;8.68;4.90;;;26.50;75.70;;;;;;10450955;28;20117;-73
2023/06/24 17:39:14;;;;;;;11.10;4.43;;;26.40;75.90;;;;;;10454093;28;20182;-73
2023/06/24 17:44:15;;;;;;;5.32;4.03;;;26.30;76.00;;;;;;10457322;28;20555;-73
2023/06/24 17:49:16;;;;;;;7.43;4.10;;;26.20;76.30;;;;;;10454420;28;20103;-73
2023/06/24 17:54:16;;;;;;;7.40;3.92;;;26.10;76.20;;;;;;10462082;28;20493;-73
2023/06/24 17:59:17;;;;;;;5.20;3.58;;;26.00;76.00;;;;;;10443060;28;20091;-73
2023/06/24 18:04:18;;;;;;;8.43;4.00;;;26.00;76.10;;;;;;10455724;28;20033;-73
2023/06/24 18:09:19;;;;;;;7.28;4.60;;;26.00;76.20;;;;;;10436645;28;20535;-73
2023/06/24 18:14:20;;;;;;;7.28;4.15;;;25.90;76.00;;;;;;10434064;28;20029;-73
2023/06/24 18:19:20;;;;;;;6.18;3.95;;;25.90;76.10;;;;;;10444395;28;20020;-73
2023/06/24 18:24:21;;;;;;;6.63;3.85;;;25.90;76.00;;;;;;10446257;28;20531;-74
2023/06/24 18:29:21;;;;;;;7.85;4.22;;;25.80;75.90;;;;;;10438772;28;20047;-74
2023/06/24 18:34:22;;;;;;;7.13;4.50;;;25.80;76.20;;;;;;10437868;28;20021;-72
2023/06/24 18:39:23;;;;;;;7.05;4.03;;;25.70;75.80;;;;;;10444464;28;20048;-73
2023/06/24 18:44:24;;;;;;;4.78;3.88;;;25.70;76.20;;;;;;10435462;28;20483;-73
2023/06/24 18:49:24;;;;;;;6.15;4.18;;;25.60;76.70;;;;;;10449682;28;20021;-73
2023/06/24 18:54:26;;;;;;;6.57;3.67;;;25.60;76.90;;;;;;10433097;28;20095;-73
2023/06/24 18:59:27;;;;;;;7.45;3.97;;;25.50;77.10;;;;;;10429592;28;20020;-72
2023/06/24 19:04:27;;;;;;;5.13;3.60;;;25.60;77.70;;;;;;10441841;28;20284;-72
2023/06/24 19:09:28;;;;;;;6.07;3.50;;;25.50;78.50;;;;;;10451239;28;20025;-72
2023/06/24 19:14:29;;;;;;;4.95;3.50;;;25.60;78.70;;;;;;10440498;28;20054;-72
2023/06/24 19:19:29;;;;;;;4.00;3.33;;;25.50;79.30;;;;;;10445096;28;20039;-72
2023/06/24 19:24:30;;;;;;;6.78;4.45;;;25.50;79.50;;;;;;10440393;28;20109;-72
2023/06/24 19:29:31;;;;;;;5.35;3.80;;;25.40;79.20;;;;;;10445638;28;20188;-70
2023/06/24 19:34:32;;;;;;;6.65;3.92;;;25.20;79.40;;;;;;10439950;28;20025;-72
2023/06/24 19:39:32;;;;;;;9.30;3.70;;;25.00;80.00;;;;;;10451546;28;20589;-71
2023/06/24 19:44:33;;;;;;;8.43;4.13;;;24.80;80.60;;;;;;10453660;28;20031;-71
2023/06/24 19:49:37;;;;;;;5.60;3.90;;;24.60;81.10;;;;;;10448088;28;20196;-71
2023/06/24 19:54:38;;;;;;;10.93;4.13;;;24.40;81.50;;;;;;10460013;28;20433;-71
2023/06/24 19:59:39;;;;;;;7.70;4.18;;;24.40;82.00;;;;;;10448482;28;20021;-71
2023/06/24 20:04:40;;;;;;;6.07;4.05;;;24.20;82.30;;;;;;10451218;28;20028;-71
2023/06/24 20:09:40;;;;;;;6.10;3.85;;;24.00;82.80;;;;;;10449708;28;20079;-70
2023/06/24 20:14:41;;;;;;;6.72;4.20;;;24.00;83.10;;;;;;10450554;28;20048;-74
2023/06/24 20:19:41;;;;;;;6.50;3.60;;;23.90;83.50;;;;;;10421133;28;20033;-67
2023/06/24 20:24:42;;;;;;;7.07;3.80;;;24.00;83.20;;;;;;10438741;28;20037;-67
2023/06/24 20:29:43;;;;;;;6.28;3.85;;;24.20;82.70;;;;;;10432547;28;20022;-66
2023/06/24 20:34:44;;;;;;;5.07;3.65;;;24.40;82.40;;;;;;10432432;28;20029;-66
2023/06/24 20:39:45;;;;;;;6.53;3.45;;;24.60;82.00;;;;;;10435832;28;20028;-67
2023/06/24 20:44:46;;;;;;;6.25;4.00;;;24.70;81.80;;;;;;10435093;28;20374;-66
2023/06/24 20:49:47;;;;;;;5.88;3.90;;;24.70;81.60;;;;;;10440700;28;20021;-67
2023/06/24 20:54:47;;;;;;;5.10;3.53;;;24.80;81.50;;;;;;10449194;28;20100;-67
2023/06/24 20:59:48;;;;;;;5.03;3.45;;;24.80;81.40;;;;;;10450018;28;20424;-67
2023/06/24 21:04:49;;;;;;;4.88;3.67;;;24.80;81.30;;;;;;10435661;28;20044;-69
2023/06/24 21:09:50;;;;;;;5.05;3.72;;;24.90;81.40;;;;;;10440383;28;20020;-68
2023/06/24 21:14:50;;;;;;;5.28;3.50;;;24.90;81.30;;;;;;10434266;28;20036;-69
2023/06/24 21:19:51;;;;;;;4.93;4.07;;;24.90;81.30;;;;;;10441562;28;20031;-69
2023/06/24 21:24:52;;;;;;;5.63;3.63;;;24.90;81.30;;;;;;10438368;28;20033;-69
2023/06/24 21:29:52;;;;;;;4.40;3.33;;;24.80;81.30;;;;;;10431326;28;20029;-69
2023/06/24 21:34:53;;;;;;;5.43;4.00;;;24.80;81.30;;;;;;10447593;28;20047;-68
2023/06/24 21:39:54;;;;;;;6.15;3.97;;;24.80;81.30;;;;;;10442600;28;20144;-68
2023/06/24 21:44:54;;;;;;;5.07;3.90;;;24.80;81.40;;;;;;10446366;28;20083;-68
2023/06/24 21:49:55;;;;;;;4.78;3.80;;;24.80;81.40;;;;;;10437101;28;20018;-69
2023/06/24 21:54:55;;;;;;;5.03;3.80;;;24.70;81.40;;;;;;10436271;28;20409;-68
2023/06/24 21:59:56;;;;;;;6.30;4.13;;;24.70;81.40;;;;;;10443512;28;20029;-69
2023/06/24 22:04:57;;;;;;;4.55;3.78;;;24.70;81.40;;;;;;10441096;28;20017;-67
2023/06/24 22:09:57;;;;;;;5.03;4.07;;;24.70;81.60;;;;;;10446962;28;20021;-67
2023/06/24 22:14:58;;;;;;;4.55;3.78;;;24.60;81.50;;;;;;10439917;28;20468;-67
2023/06/24 22:19:58;;;;;;;5.40;4.20;;;24.60;81.60;;;;;;10450592;28;20105;-67
2023/06/24 22:24:59;;;;;;;6.40;3.92;;;24.60;81.60;;;;;;10441612;28;20036;-67
2023/06/24 22:30:00;;;;;;;5.57;4.32;;;24.50;81.50;;;;;;10448811;28;20059;-66
2023/06/24 22:35:01;;;;;;;5.75;3.97;;;24.50;81.60;;;;;;10449352;28;20054;-67
2023/06/24 22:40:01;;;;;;;6.32;4.13;;;24.50;81.60;;;;;;10437520;28;20012;-67
2023/06/24 22:45:02;;;;;;;5.15;3.97;;;24.40;81.60;;;;;;10438255;28;20399;-67
2023/06/24 22:50:03;;;;;;;5.18;4.32;;;24.40;81.60;;;;;;10444044;28;20028;-66
2023/06/24 22:55:08;;;;;;;6.32;4.82;;;24.40;81.70;;;;;;10454207;28;20031;-66
2023/06/24 23:00:09;;;;;;;4.32;3.78;;;24.40;81.70;;;;;;10450089;28;20036;-66
2023/06/24 23:05:10;;;;;;;7.78;4.70;;;24.30;81.70;;;;;;10441739;28;20021;-67
2023/06/24 23:10:11;;;;;;;5.70;4.40;;;24.30;81.70;;;;;;10453016;28;20388;-66
2023/06/24 23:15:12;;;;;;;4.95;3.95;;;24.30;81.80;;;;;;10455389;28;20017;-67
2023/06/24 23:20:13;;;;;;;4.97;3.78;;;24.20;81.80;;;;;;10453928;28;20056;-66
2023/06/24 23:25:17;;;;;;;5.25;4.07;;;24.20;81.80;;;;;;10452522;28;20033;-67
2023/06/24 23:30:21;;;;;;;5.60;4.10;;;24.20;81.90;;;;;;10448706;28;20044;-66
2023/06/24 23:35:22;;;;;;;10.25;4.40;;;24.10;81.90;;;;;;10442506;28;20104;-66
2023/06/24 23:40:22;;;;;;;7.35;4.30;;;24.10;82.00;;;;;;10442835;28;20025;-67
2023/06/24 23:45:23;;;;;;;5.95;4.65;;;24.10;82.00;;;;;;10451177;28;20025;-67
2023/06/24 23:50:24;;;;;;;7.00;4.25;;;24.10;82.00;;;;;;10443609;28;20291;-67
2023/06/24 23:55:25;;;;;;;8.73;4.82;;;24.00;81.90;;;;;;10446074;28;20477;-67
